Terminal Aerodrome Forecast
Issued by NWS

Home | Current Version | Previous Version | Text Only | Print | Product List | Glossary On
Versions: 1 2 3 4 5 6 7 8 9 10 11 12 13 14 15 16
549
FTUS46 KMTR 191137
TAFOAK
TAF
KOAK 191137Z 1912/2018 29008KT P6SM VCSH FEW100 BKN200
     FM191500 31008KT P6SM FEW020 SCT050 SCT200
     FM192000 30007KT P6SM -SHRA SCT020 BKN080 BKN120
     FM200000 29012KT P6SM VCSH FEW025 SCT090 BKN120
     FM200400 32007KT P6SM FEW030 SCT150
     FM200900 32005KT P6SM FEW010 SCT150=

USA.gov is the U.S. government's official web portal to all federal, state and local government web resources and services.